createdAt,value
2018-09-21T00:02:41.424Z,14.70
2018-09-21T00:06:44.957Z,14.40
2018-09-21T00:10:48.417Z,13.45
2018-09-21T00:14:51.979Z,13.60
2018-09-21T00:18:55.629Z,12.03
2018-09-21T00:22:59.066Z,13.20
2018-09-21T00:27:02.578Z,13.53
2018-09-21T00:31:06.668Z,11.93
2018-09-21T00:35:10.191Z,12.80
2018-09-21T00:39:13.685Z,11.53
2018-09-21T00:43:17.430Z,12.43
2018-09-21T00:47:20.862Z,11.73
2018-09-21T00:51:25.670Z,13.98
2018-09-21T00:55:29.130Z,11.93
2018-09-21T00:59:32.621Z,16.45
2018-09-21T01:03:36.100Z,15.23
2018-09-21T01:07:39.692Z,14.17
2018-09-21T01:11:43.291Z,15.58
2018-09-21T01:15:46.833Z,11.53
2018-09-21T01:19:50.548Z,14.45
2018-09-21T01:23:54.143Z,11.55
2018-09-21T01:27:57.651Z,13.30
2018-09-21T01:32:01.379Z,14.70
2018-09-21T01:36:04.842Z,13.40
2018-09-21T01:40:08.797Z,13.62
2018-09-21T01:44:12.353Z,12.65
2018-09-21T01:48:15.855Z,13.30
2018-09-21T01:52:19.438Z,14.13
2018-09-21T01:56:22.919Z,15.20
2018-09-21T02:00:26.397Z,13.73
2018-09-21T02:04:35.178Z,13.35
2018-09-21T02:08:38.694Z,12.50
2018-09-21T02:12:42.454Z,15.13
2018-09-21T02:16:46.119Z,15.13
2018-09-21T02:20:49.703Z,13.27
2018-09-21T02:24:53.195Z,16.13
2018-09-21T02:28:56.701Z,17.97
2018-09-21T02:33:00.178Z,13.50
2018-09-21T02:37:03.666Z,13.10
2018-09-21T02:41:08.013Z,14.03
2018-09-21T02:45:11.522Z,13.67
2018-09-21T02:49:14.956Z,12.43
2018-09-21T02:53:18.540Z,12.90
2018-09-21T02:57:22.037Z,12.80
2018-09-21T03:01:25.546Z,14.10
2018-09-21T03:05:29.443Z,15.70
2018-09-21T03:09:32.926Z,14.53
2018-09-21T03:13:36.502Z,16.13
2018-09-21T03:17:39.978Z,14.67
2018-09-21T03:21:43.598Z,14.40
2018-09-21T03:25:47.213Z,13.33
2018-09-21T03:29:50.743Z,14.73
2018-09-21T03:33:54.317Z,14.10
2018-09-21T03:37:57.792Z,15.17
2018-09-21T03:42:01.649Z,12.53
2018-09-21T03:46:05.152Z,13.53
2018-09-21T03:50:08.778Z,13.17
2018-09-21T03:54:12.353Z,16.73
2018-09-21T03:58:15.841Z,15.70
2018-09-21T04:02:19.462Z,18.20
2018-09-21T04:06:23.106Z,17.40
2018-09-21T04:10:26.622Z,18.57
2018-09-21T04:14:30.091Z,15.73
2018-09-21T04:18:33.554Z,18.87
2018-09-21T04:22:37.173Z,19.50
2018-09-21T04:26:40.651Z,15.83
2018-09-21T04:30:44.263Z,15.93
2018-09-21T04:34:47.786Z,14.37
2018-09-21T04:38:51.326Z,15.73
2018-09-21T04:42:54.815Z,16.20
2018-09-21T04:46:58.399Z,14.77
2018-09-21T04:51:01.960Z,16.33
2018-09-21T04:55:05.414Z,17.53
2018-09-21T04:59:09.362Z,16.07
2018-09-21T05:03:12.886Z,16.90
2018-09-21T05:07:16.349Z,16.40
2018-09-21T05:11:19.922Z,16.93
2018-09-21T05:15:23.491Z,15.00
2018-09-21T05:19:27.102Z,13.17
2018-09-21T05:23:30.726Z,16.17
2018-09-21T05:27:34.142Z,18.73
2018-09-21T05:31:37.652Z,17.70
2018-09-21T05:35:42.233Z,14.67
2018-09-21T05:39:45.793Z,16.10
2018-09-21T05:43:50.302Z,17.97
2018-09-21T05:47:53.829Z,21.30
2018-09-21T05:51:57.356Z,20.40
2018-09-21T05:56:00.932Z,17.30
2018-09-21T06:00:04.462Z,20.47
2018-09-21T06:04:08.285Z,17.83
2018-09-21T06:08:11.798Z,20.43
2018-09-21T06:12:15.281Z,16.87
2018-09-21T06:16:19.220Z,14.80
2018-09-21T06:20:22.678Z,16.30
2018-09-21T06:24:26.349Z,15.30
2018-09-21T06:28:29.929Z,17.00
2018-09-21T06:32:33.398Z,18.83
2018-09-21T06:36:36.847Z,17.40
2018-09-21T06:40:40.372Z,21.70
2018-09-21T06:44:43.950Z,15.00
2018-09-21T06:48:47.450Z,15.83
2018-09-21T06:52:50.903Z,16.87
2018-09-21T06:56:54.486Z,16.33
2018-09-21T07:00:58.089Z,16.20
2018-09-21T07:05:06.838Z,14.63
2018-09-21T07:09:13.334Z,18.37
2018-09-21T07:13:16.980Z,15.05
2018-09-21T07:17:20.507Z,14.63
2018-09-21T07:21:24.334Z,16.80
2018-09-21T07:25:27.989Z,12.63
2018-09-21T07:29:31.414Z,13.83
2018-09-21T07:33:35.017Z,14.50
2018-09-21T07:37:38.710Z,13.88
2018-09-21T07:41:42.119Z,12.50
2018-09-21T07:45:45.606Z,13.38
2018-09-21T07:49:49.219Z,15.60
2018-09-21T07:53:52.813Z,12.82
2018-09-21T07:57:56.347Z,12.80
2018-09-21T08:02:00.434Z,13.98
2018-09-21T08:06:03.937Z,15.63
2018-09-21T08:10:07.823Z,11.22
2018-09-21T08:14:11.416Z,11.55
2018-09-21T08:18:14.909Z,12.95
2018-09-21T08:22:18.424Z,11.10
2018-09-21T08:26:21.940Z,10.32
2018-09-21T08:30:25.647Z,13.05
2018-09-21T08:34:29.109Z,14.18
2018-09-21T08:38:32.617Z,9.40
2018-09-21T08:42:36.396Z,10.93
2018-09-21T08:46:40.539Z,10.88
2018-09-21T08:50:44.008Z,10.82
2018-09-21T08:54:47.490Z,8.90
2018-09-21T08:58:51.512Z,9.55
2018-09-21T09:02:55.037Z,9.80
2018-09-21T09:06:58.551Z,9.48
2018-09-21T09:11:02.098Z,8.55
2018-09-21T09:15:05.580Z,10.85
2018-09-21T09:19:09.448Z,7.95
2018-09-21T09:23:13.166Z,8.15
2018-09-21T09:27:16.740Z,15.60
2018-09-21T09:31:21.302Z,8.75
2018-09-21T09:35:24.784Z,8.08
2018-09-21T09:39:28.291Z,7.90
2018-09-21T09:43:31.914Z,12.93
2018-09-21T09:47:35.612Z,10.28
2018-09-21T09:51:39.076Z,9.83
2018-09-21T09:55:42.562Z,11.97
2018-09-21T09:59:46.094Z,10.58
2018-09-21T10:03:49.600Z,6.87
2018-09-21T10:07:53.100Z,7.95
2018-09-21T10:11:56.628Z,6.72
2018-09-21T10:16:00.076Z,8.03
2018-09-21T10:20:03.643Z,10.82
2018-09-21T10:24:07.268Z,7.53
2018-09-21T10:28:10.856Z,7.40
2018-09-21T10:32:14.310Z,11.22
2018-09-21T10:36:17.845Z,7.42
2018-09-21T10:40:21.278Z,10.93
2018-09-21T10:44:24.866Z,7.05
2018-09-21T10:48:28.513Z,6.47
2018-09-21T10:52:32.197Z,6.78
2018-09-21T10:56:35.747Z,6.15
2018-09-21T11:00:39.505Z,7.25
2018-09-21T11:04:42.983Z,9.03
2018-09-21T11:08:46.454Z,6.25
2018-09-21T11:12:50.005Z,7.35
2018-09-21T11:16:53.535Z,8.55
2018-09-21T11:20:57.043Z,7.20
2018-09-21T11:25:00.523Z,7.12
2018-09-21T11:29:04.211Z,8.13
2018-09-21T11:33:08.391Z,7.12
2018-09-21T11:37:12.181Z,10.13
2018-09-21T11:41:15.711Z,6.65
2018-09-21T11:45:19.210Z,7.03
2018-09-21T11:49:22.753Z,6.60
2018-09-21T11:53:26.273Z,9.70
2018-09-21T11:57:29.939Z,6.08
2018-09-21T12:01:33.426Z,7.80
2018-09-21T12:05:37.033Z,7.33
2018-09-21T12:09:40.473Z,5.58
2018-09-21T12:13:44.014Z,5.90
2018-09-21T12:17:47.501Z,5.60
2018-09-21T12:21:51.151Z,5.22
2018-09-21T12:25:54.694Z,5.95
2018-09-21T12:29:58.184Z,6.22
2018-09-21T12:34:01.803Z,6.10
2018-09-21T12:38:05.395Z,6.10
2018-09-21T12:42:08.910Z,5.55
2018-09-21T12:46:17.182Z,5.62
2018-09-21T12:50:20.839Z,7.25
2018-09-21T12:54:24.337Z,9.40
2018-09-21T12:58:28.389Z,6.15
2018-09-21T13:02:31.801Z,6.40
2018-09-21T13:06:35.544Z,5.70
2018-09-21T13:10:39.138Z,6.92
2018-09-21T13:14:42.570Z,5.12
2018-09-21T13:18:46.794Z,5.55
2018-09-21T13:22:50.553Z,6.75
2018-09-21T13:26:54.173Z,5.40
2018-09-21T13:30:57.651Z,5.75
2018-09-21T13:35:01.615Z,5.72
2018-09-21T13:39:08.162Z,6.40
2018-09-21T13:43:12.832Z,5.95
2018-09-21T13:47:16.423Z,5.30
2018-09-21T13:51:20.454Z,7.50
2018-09-21T13:55:23.896Z,5.28
2018-09-21T13:59:27.574Z,5.35
2018-09-21T14:03:31.254Z,5.45
2018-09-21T14:07:34.733Z,5.33
2018-09-21T14:11:38.306Z,5.95
2018-09-21T14:15:42.042Z,5.03
2018-09-21T14:19:45.568Z,5.62
2018-09-21T14:23:49.174Z,5.67
2018-09-21T14:27:52.867Z,5.62
2018-09-21T14:31:56.335Z,7.67
2018-09-21T14:35:59.938Z,5.20
2018-09-21T14:40:03.816Z,5.28
2018-09-21T14:44:07.560Z,7.55
2018-09-21T14:48:11.051Z,6.78
2018-09-21T14:52:14.481Z,4.70
2018-09-21T14:56:17.982Z,6.10
2018-09-21T15:00:21.848Z,4.97
2018-09-21T15:04:25.391Z,6.60
2018-09-21T15:08:29.012Z,4.92
2018-09-21T15:12:33.922Z,6.62
2018-09-21T15:16:37.893Z,5.60
2018-09-21T15:20:41.274Z,6.22
2018-09-21T15:24:44.857Z,5.80
2018-09-21T15:28:48.780Z,6.35
2018-09-21T15:32:52.529Z,5.70
2018-09-21T15:36:56.079Z,6.75
2018-09-21T15:40:59.615Z,6.50
2018-09-21T15:45:03.331Z,5.95
2018-09-21T15:49:07.456Z,4.95
2018-09-21T15:53:11.057Z,6.60
2018-09-21T15:57:14.531Z,5.53
2018-09-21T16:01:18.027Z,6.50
2018-09-21T16:05:21.533Z,7.10
2018-09-21T16:09:25.142Z,5.15
2018-09-21T16:13:28.590Z,5.78
2018-09-21T16:17:33.298Z,6.40
2018-09-21T16:21:36.795Z,6.12
2018-09-21T16:25:40.372Z,6.58
2018-09-21T16:29:43.975Z,7.20
2018-09-21T16:33:47.552Z,7.45
2018-09-21T16:37:51.428Z,7.92
2018-09-21T16:41:55.078Z,7.17
2018-09-21T16:45:58.898Z,6.37
2018-09-21T16:50:02.374Z,10.20
2018-09-21T16:54:05.979Z,7.33
2018-09-21T16:58:10.598Z,7.22
2018-09-21T17:02:14.394Z,7.00
2018-09-21T17:06:19.018Z,10.18
2018-09-21T17:10:22.463Z,5.95
2018-09-21T17:14:26.696Z,14.13
2018-09-21T17:18:30.133Z,7.50
2018-09-21T17:22:33.818Z,8.90
2018-09-21T17:26:37.369Z,9.00
2018-09-21T17:30:42.100Z,9.08
2018-09-21T17:34:45.694Z,9.10
2018-09-21T17:38:49.234Z,6.85
2018-09-21T17:42:53.718Z,7.40
2018-09-21T17:46:57.330Z,7.47
2018-09-21T17:51:01.286Z,8.08
2018-09-21T17:55:04.766Z,6.50
2018-09-21T17:59:08.659Z,7.72
2018-09-21T18:03:12.360Z,8.18
2018-09-21T18:07:21.065Z,7.90
2018-09-21T18:11:24.570Z,7.20
2018-09-21T18:15:28.050Z,7.58
2018-09-21T18:19:31.615Z,7.17
2018-09-21T18:23:35.396Z,8.75
2018-09-21T18:27:38.963Z,7.10
2018-09-21T18:31:42.450Z,8.00
2018-09-21T18:35:45.969Z,6.95
2018-09-21T18:39:49.518Z,7.80
2018-09-21T18:43:52.986Z,7.03
2018-09-21T18:47:56.937Z,7.00
2018-09-21T18:52:00.526Z,6.92
2018-09-21T18:56:04.012Z,9.00
2018-09-21T19:00:08.189Z,6.97
2018-09-21T19:04:11.829Z,7.67
2018-09-21T19:08:15.682Z,6.87
2018-09-21T19:12:20.161Z,9.73
2018-09-21T19:16:23.864Z,8.38
2018-09-21T19:20:27.344Z,8.48
2018-09-21T19:24:30.877Z,8.63
2018-09-21T19:28:34.501Z,7.60
2018-09-21T19:32:37.959Z,10.05
2018-09-21T19:36:41.439Z,7.30
2018-09-21T19:40:45.177Z,8.20
2018-09-21T19:44:48.881Z,10.23
2018-09-21T19:48:53.010Z,6.97
2018-09-21T19:52:56.689Z,7.50
2018-09-21T19:57:00.174Z,8.60
2018-09-21T20:01:04.089Z,8.35
2018-09-21T20:05:07.697Z,7.87
2018-09-21T20:09:12.596Z,9.50
2018-09-21T20:13:16.411Z,8.75
2018-09-21T20:17:20.580Z,9.55
2018-09-21T20:21:24.178Z,8.43
2018-09-21T20:25:27.895Z,8.88
2018-09-21T20:29:31.539Z,11.85
2018-09-21T20:33:35.846Z,8.83
2018-09-21T20:37:39.593Z,9.95
2018-09-21T20:41:43.075Z,8.88
2018-09-21T20:45:47.578Z,7.87
2018-09-21T20:49:52.066Z,11.38
2018-09-21T20:53:55.599Z,8.20
2018-09-21T20:57:59.306Z,9.20
2018-09-21T21:02:03.227Z,10.43
2018-09-21T21:06:06.804Z,11.68
2018-09-21T21:10:10.285Z,9.38
2018-09-21T21:14:13.846Z,10.13
2018-09-21T21:18:18.497Z,8.95
2018-09-21T21:22:22.482Z,10.53
2018-09-21T21:26:26.105Z,11.12
2018-09-21T21:30:29.834Z,9.10
2018-09-21T21:34:33.354Z,10.30
2018-09-21T21:38:37.106Z,8.98
2018-09-21T21:42:40.592Z,9.63
2018-09-21T21:46:44.051Z,9.23
2018-09-21T21:50:47.553Z,9.65
2018-09-21T21:54:51.086Z,9.35
2018-09-21T21:58:54.636Z,12.40
2018-09-21T22:02:58.181Z,13.00
2018-09-21T22:07:01.742Z,8.78
2018-09-21T22:11:09.681Z,7.85
2018-09-21T22:15:15.633Z,6.75
2018-09-21T22:19:19.033Z,4.25
2018-09-21T22:23:22.636Z,3.98
2018-09-21T22:27:26.177Z,4.95
2018-09-21T22:31:30.073Z,5.65
2018-09-21T22:35:33.663Z,3.72
2018-09-21T22:39:37.194Z,4.33
2018-09-21T22:43:40.776Z,4.30
2018-09-21T22:47:44.205Z,3.70
2018-09-21T22:51:47.678Z,6.92
2018-09-21T22:55:51.181Z,4.95
2018-09-21T22:59:54.736Z,4.00
2018-09-21T23:03:58.285Z,3.20
2018-09-21T23:08:01.735Z,4.87
2018-09-21T23:12:05.197Z,4.30
2018-09-21T23:16:08.686Z,3.67
2018-09-21T23:20:12.295Z,3.72
2018-09-21T23:24:15.834Z,4.05
2018-09-21T23:28:19.348Z,3.10
2018-09-21T23:32:22.970Z,3.08
2018-09-21T23:36:26.489Z,6.70
2018-09-21T23:40:29.981Z,3.10
2018-09-21T23:44:33.425Z,3.50
2018-09-21T23:48:37.052Z,3.58
2018-09-21T23:52:40.526Z,5.22
2018-09-21T23:56:44.232Z,4.97
